Time;durP1;ratioP1;P1;durP2;ratioP2;P2;SDS_P1;SDS_P2;PMS_P1;PMS_P2;Temp;Humidity;BMP_temperature;BMP_pressure;BME280_temperature;BME280_humidity;BME280_pressure;Samples;Min_cycle;Max_cycle;Signal;HPM_P1;HPM_P2
2023/03/23 00:03:33;;;;;;;41.00;14.77;;;;;;;;;;10292787;28;20076;-59
2023/03/23 00:08:30;;;;;;;68.55;19.95;;;;;;;;;;10294321;28;20071;-59
2023/03/23 00:13:28;;;;;;;32.10;16.80;;;;;;;;;;10293616;28;20586;-58
2023/03/23 00:18:26;;;;;;;57.92;17.08;;;;;;;;;;10294124;28;20092;-59
2023/03/23 00:23:25;;;;;;;41.13;14.93;;;;;;;;;;10291224;28;20405;-60
2023/03/23 00:28:24;;;;;;;27.17;15.30;;;;;;;;;;10293445;28;20553;-60
2023/03/23 00:33:22;;;;;;;25.33;15.80;;;;;;;;;;10294607;28;20183;-59
2023/03/23 00:38:20;;;;;;;15.82;14.23;;;;;;;;;;10292472;28;20083;-59
2023/03/23 00:43:19;;;;;;;15.48;12.10;;;;;;;;;;10291584;28;20605;-59
2023/03/23 00:48:16;;;;;;;14.82;12.07;;;;;;;;;;10292173;28;20076;-59
2023/03/23 00:53:14;;;;;;;11.05;9.63;;;;;;;;;;10292149;28;20068;-59
2023/03/23 00:58:11;;;;;;;10.52;9.52;;;;;;;;;;10290930;28;20068;-59
2023/03/23 01:03:11;;;;;;;10.40;9.40;;;;;;;;;;10292048;28;20073;-58
2023/03/23 01:08:10;;;;;;;9.85;8.95;;;;;;;;;;10290206;28;20084;-59
2023/03/23 01:13:08;;;;;;;15.32;12.88;;;;;;;;;;10291558;28;20520;-60
2023/03/23 01:18:05;;;;;;;40.70;17.90;;;;;;;;;;10291496;28;20068;-60
2023/03/23 01:23:04;;;;;;;15.25;13.75;;;;;;;;;;10289264;28;20094;-60
2023/03/23 01:28:02;;;;;;;17.58;15.45;;;;;;;;;;10290810;28;20076;-60
2023/03/23 01:32:59;;;;;;;13.30;11.95;;;;;;;;;;10291032;28;20068;-60
2023/03/23 01:37:56;;;;;;;12.25;11.15;;;;;;;;;;10291283;28;20522;-59
2023/03/23 01:42:54;;;;;;;12.85;11.57;;;;;;;;;;10287500;28;20567;-59
2023/03/23 01:47:53;;;;;;;12.80;11.35;;;;;;;;;;10295940;28;20521;-59
2023/03/23 01:52:51;;;;;;;14.02;11.93;;;;;;;;;;10291001;28;20060;-59
2023/03/23 01:57:49;;;;;;;13.52;12.18;;;;;;;;;;10291839;28;20076;-60
2023/03/23 02:02:50;;;;;;;14.05;12.52;;;;;;;;;;10298051;28;20077;-59
2023/03/23 02:07:49;;;;;;;20.27;16.88;;;;;;;;;;10290576;28;20171;-59
2023/03/23 02:12:47;;;;;;;26.27;18.35;;;;;;;;;;10290357;28;20548;-59
2023/03/23 02:17:48;;;;;;;22.92;19.65;;;;;;;;;;10296521;28;20045;-60
2023/03/23 02:23:00;;;;;;;32.95;25.45;;;;;;;;;;10289678;28;20077;-60
2023/03/23 02:28:11;;;;;;;24.98;20.50;;;;;;;;;;10246024;28;20092;-59
2023/03/23 02:33:35;;;;;;;21.13;18.92;;;;;;;;;;10290357;28;20103;-61
2023/03/23 02:38:36;;;;;;;25.15;19.42;;;;;;;;;;10293053;28;20084;-60
2023/03/23 02:43:37;;;;;;;20.73;18.13;;;;;;;;;;10298261;28;20510;-60
2023/03/23 02:48:34;;;;;;;26.30;20.90;;;;;;;;;;10288703;28;20076;-59
2023/03/23 02:53:32;;;;;;;29.30;22.05;;;;;;;;;;10290228;28;20075;-59
2023/03/23 02:58:31;;;;;;;27.23;23.58;;;;;;;;;;10290125;28;20077;-60
2023/03/23 03:03:29;;;;;;;31.02;24.75;;;;;;;;;;10288572;28;20076;-59
2023/03/23 03:08:30;;;;;;;35.72;26.42;;;;;;;;;;10302246;28;20450;-60
2023/03/23 03:13:38;;;;;;;36.00;28.48;;;;;;;;;;10303202;28;20556;-61
2023/03/23 03:18:38;;;;;;;38.10;26.63;;;;;;;;;;10299451;28;20072;-60
2023/03/23 03:23:36;;;;;;;38.55;28.35;;;;;;;;;;10296103;28;20070;-60
2023/03/23 03:28:35;;;;;;;34.92;27.17;;;;;;;;;;10302981;28;20072;-60
2023/03/23 03:33:33;;;;;;;36.47;27.52;;;;;;;;;;10299155;28;20107;-59
2023/03/23 03:38:41;;;;;;;23.38;19.13;;;;;;;;;;10298619;28;20041;-58
2023/03/23 03:43:40;;;;;;;23.23;19.75;;;;;;;;;;10294723;28;20475;-60
2023/03/23 03:48:37;;;;;;;24.42;20.70;;;;;;;;;;10295232;28;20076;-59
2023/03/23 03:53:34;;;;;;;21.58;19.15;;;;;;;;;;10296067;28;20080;-60
2023/03/23 03:58:32;;;;;;;24.98;21.00;;;;;;;;;;10292328;28;20075;-59
2023/03/23 04:03:53;;;;;;;30.65;25.77;;;;;;;;;;10292428;28;20473;-58
2023/03/23 04:08:58;;;;;;;40.15;32.25;;;;;;;;;;10297417;28;20088;-60
2023/03/23 04:13:56;;;;;;;31.80;20.33;;;;;;;;;;10291409;28;20044;-60
2023/03/23 04:18:57;;;;;;;27.08;22.75;;;;;;;;;;10294086;28;20071;-58
2023/03/23 04:23:58;;;;;;;28.77;25.67;;;;;;;;;;10300937;28;20090;-59
2023/03/23 04:28:58;;;;;;;31.50;20.65;;;;;;;;;;10288281;28;20041;-59
2023/03/23 04:34:06;;;;;;;36.88;24.95;;;;;;;;;;10302522;28;20084;-59
2023/03/23 04:39:10;;;;;;;38.42;29.13;;;;;;;;;;10292724;28;20091;-59
2023/03/23 04:44:08;;;;;;;42.92;25.13;;;;;;;;;;10292836;28;20126;-59
2023/03/23 04:49:20;;;;;;;93.13;25.33;;;;;;;;;;10290362;28;20086;-60
2023/03/23 04:54:19;;;;;;;31.25;27.70;;;;;;;;;;10293176;28;20079;-59
2023/03/23 04:59:21;;;;;;;26.08;21.92;;;;;;;;;;10301648;28;20052;-60
2023/03/23 05:04:30;;;;;;;20.20;17.92;;;;;;;;;;10295437;28;20111;-59
2023/03/23 05:09:33;;;;;;;;;;;;;;;;;;10290765;28;20508;-59
2023/03/23 05:14:30;;;;;;;19.20;17.02;;;;;;;;;;10289861;28;19963;-58
2023/03/23 05:19:43;;;;;;;25.65;19.85;;;;;;;;;;10292422;28;20083;-60
2023/03/23 05:24:57;;;;;;;24.33;21.38;;;;;;;;;;10294127;28;20091;-59
2023/03/23 05:29:55;;;;;;;26.92;23.80;;;;;;;;;;10293434;28;20080;-59
2023/03/23 05:34:54;;;;;;;29.42;26.20;;;;;;;;;;10292975;28;20614;-61
2023/03/23 05:39:53;;;;;;;40.95;33.35;;;;;;;;;;10290508;28;20072;-61
2023/03/23 05:45:11;;;;;;;35.42;31.42;;;;;;;;;;10279035;28;20087;-58
2023/03/23 05:50:12;;;;;;;26.73;23.67;;;;;;;;;;10275940;28;20072;-58
2023/03/23 05:55:11;;;;;;;32.10;28.77;;;;;;;;;;10291676;28;20095;-59
2023/03/23 06:00:12;;;;;;;24.90;19.17;;;;;;;;;;10291465;28;20072;-60
2023/03/23 06:05:11;;;;;;;24.13;21.38;;;;;;;;;;10273487;28;20107;-59
2023/03/23 06:10:11;;;;;;;32.35;24.45;;;;;;;;;;10287038;28;20466;-59
2023/03/23 06:15:10;;;;;;;32.13;25.52;;;;;;;;;;10287088;28;20083;-59
2023/03/23 06:20:27;;;;;;;26.48;22.90;;;;;;;;;;10290829;28;20064;-59
2023/03/23 06:25:25;;;;;;;35.90;24.70;;;;;;;;;;10286145;28;20080;-59
2023/03/23 06:30:23;;;;;;;34.83;28.17;;;;;;;;;;10276779;28;20533;-60
2023/03/23 06:35:21;;;;;;;29.65;25.88;;;;;;;;;;10284418;28;20474;-60
2023/03/23 06:40:49;;;;;;;35.42;28.60;;;;;;;;;;10297101;28;20081;-61
2023/03/23 06:45:46;;;;;;;47.33;39.33;;;;;;;;;;10292629;28;20083;-60
2023/03/23 06:51:02;;;;;;;49.78;39.75;;;;;;;;;;10299665;28;20075;-60
2023/03/23 06:56:02;;;;;;;36.05;31.02;;;;;;;;;;10296457;28;20076;-60
2023/03/23 07:01:01;;;;;;;45.50;35.28;;;;;;;;;;10291749;28;20080;-61
2023/03/23 07:06:09;;;;;;;53.72;34.92;;;;;;;;;;10279639;28;20080;-61
2023/03/23 07:11:14;;;;;;;48.42;38.67;;;;;;;;;;10291652;28;20075;-60
2023/03/23 07:16:12;;;;;;;31.77;26.38;;;;;;;;;;10305322;28;20057;-60
2023/03/23 07:21:10;;;;;;;26.80;21.73;;;;;;;;;;10277550;28;20487;-61
2023/03/23 07:26:07;;;;;;;43.70;37.75;;;;;;;;;;10291737;28;20504;-60
2023/03/23 07:31:12;;;;;;;28.73;25.55;;;;;;;;;;10292604;28;20084;-60
2023/03/23 07:36:10;;;;;;;49.95;42.67;;;;;;;;;;10297073;28;20521;-61
2023/03/23 07:41:08;;;;;;;26.55;21.83;;;;;;;;;;10292352;28;20087;-60
2023/03/23 07:46:07;;;;;;;43.03;33.63;;;;;;;;;;10300518;28;20103;-61
2023/03/23 07:51:28;;;;;;;32.08;26.98;;;;;;;;;;10295165;28;20083;-60
2023/03/23 07:56:26;;;;;;;30.90;25.70;;;;;;;;;;10300643;28;20131;-60
2023/03/23 08:01:30;;;;;;;22.88;20.23;;;;;;;;;;10295847;28;20472;-61
2023/03/23 08:06:48;;;;;;;36.20;30.05;;;;;;;;;;10296325;28;20483;-61
2023/03/23 08:12:05;;;;;;;20.35;17.92;;;;;;;;;;10297859;28;20083;-61
2023/03/23 08:17:20;;;;;;;23.05;20.55;;;;;;;;;;10304079;28;20057;-61
2023/03/23 08:22:39;;;;;;;34.88;28.20;;;;;;;;;;10293621;28;20506;-61
2023/03/23 08:28:01;;;;;;;26.02;21.23;;;;;;;;;;10293888;28;20084;-60
2023/03/23 08:33:24;;;;;;;31.50;26.55;;;;;;;;;;10292685;28;20061;-60
2023/03/23 08:38:44;;;;;;;26.25;21.75;;;;;;;;;;10294354;28;20095;-60
2023/03/23 08:44:13;;;;;;;20.98;18.27;;;;;;;;;;10293477;28;20076;-60
2023/03/23 08:49:34;;;;;;;64.68;49.97;;;;;;;;;;10292431;28;20072;-60
2023/03/23 08:54:52;;;;;;;26.73;23.63;;;;;;;;;;10294482;28;20069;-60
2023/03/23 09:00:21;;;;;;;31.55;28.23;;;;;;;;;;10299542;28;20080;-60
2023/03/23 09:05:29;;;;;;;28.58;25.38;;;;;;;;;;10294591;28;20088;-60
2023/03/23 09:11:04;;;;;;;22.08;19.67;;;;;;;;;;10321114;28;20072;-60
2023/03/23 09:16:01;;;;;;;24.38;21.88;;;;;;;;;;10290590;28;20158;-60
2023/03/23 09:20:58;;;;;;;24.20;21.05;;;;;;;;;;10291371;28;20084;-60
2023/03/23 09:25:55;;;;;;;27.90;23.00;;;;;;;;;;10290883;28;20446;-60
2023/03/23 09:30:56;;;;;;;24.98;22.35;;;;;;;;;;10287368;28;20461;-60
2023/03/23 09:35:53;;;;;;;23.25;20.75;;;;;;;;;;10288871;28;20068;-59
2023/03/23 09:40:52;;;;;;;33.05;29.52;;;;;;;;;;10291395;28;20092;-60
2023/03/23 09:45:52;;;;;;;22.92;20.50;;;;;;;;;;10289324;28;20071;-60
2023/03/23 09:50:52;;;;;;;24.40;21.83;;;;;;;;;;10290395;28;20072;-60
2023/03/23 09:55:50;;;;;;;21.83;19.50;;;;;;;;;;10289851;28;20074;-60
2023/03/23 10:00:49;;;;;;;23.42;20.90;;;;;;;;;;10289970;28;20071;-59
2023/03/23 10:05:49;;;;;;;25.13;21.98;;;;;;;;;;10295192;28;20103;-60
2023/03/23 10:10:51;;;;;;;22.25;19.42;;;;;;;;;;10289397;28;20076;-61
2023/03/23 10:15:49;;;;;;;24.25;21.38;;;;;;;;;;10287541;28;20087;-59
2023/03/23 10:20:49;;;;;;;23.98;19.10;;;;;;;;;;10289501;28;20473;-61
2023/03/23 10:25:51;;;;;;;23.08;20.67;;;;;;;;;;10284354;28;20076;-61
2023/03/23 10:30:51;;;;;;;26.38;20.23;;;;;;;;;;10285106;28;20073;-60
2023/03/23 10:35:51;;;;;;;27.98;23.13;;;;;;;;;;10287451;28;20064;-61
2023/03/23 10:40:59;;;;;;;25.17;22.60;;;;;;;;;;10289604;28;20469;-62
2023/03/23 10:46:01;;;;;;;20.60;18.40;;;;;;;;;;10287486;28;20075;-62
2023/03/23 10:50:59;;;;;;;19.95;16.45;;;;;;;;;;10273513;28;20530;-60
2023/03/23 10:55:58;;;;;;;19.50;17.20;;;;;;;;;;10286353;28;20068;-61
2023/03/23 11:00:55;;;;;;;20.40;18.05;;;;;;;;;;10288676;28;20068;-61
2023/03/23 11:05:56;;;;;;;20.88;18.83;;;;;;;;;;10289899;28;20085;-60
2023/03/23 11:10:54;;;;;;;20.17;18.08;;;;;;;;;;10289026;28;20087;-62
2023/03/23 11:15:53;;;;;;;35.97;29.23;;;;;;;;;;10288410;28;20060;-60
2023/03/23 11:20:54;;;;;;;30.52;25.48;;;;;;;;;;10288401;28;20109;-61
2023/03/23 11:25:56;;;;;;;43.67;31.77;;;;;;;;;;10294581;28;20084;-60
2023/03/23 11:30:55;;;;;;;28.35;22.40;;;;;;;;;;10295060;28;20064;-60
2023/03/23 11:35:54;;;;;;;19.85;17.80;;;;;;;;;;10292500;28;20067;-61
2023/03/23 11:40:54;;;;;;;20.75;18.23;;;;;;;;;;10293559;28;20087;-59
2023/03/23 11:45:57;;;;;;;24.30;21.70;;;;;;;;;;10293699;28;20515;-61
2023/03/23 11:50:58;;;;;;;23.35;20.83;;;;;;;;;;10295227;28;20101;-61
2023/03/23 11:56:08;;;;;;;27.08;17.48;;;;;;;;;;10277266;28;20045;-60
2023/03/23 12:01:07;;;;;;;18.33;16.45;;;;;;;;;;10295324;28;20076;-61
2023/03/23 12:06:07;;;;;;;21.27;18.83;;;;;;;;;;10299729;28;20461;-61
2023/03/23 12:11:09;;;;;;;18.08;16.27;;;;;;;;;;10292464;28;20064;-60
2023/03/23 12:16:12;;;;;;;18.20;15.32;;;;;;;;;;10292591;28;20075;-60
2023/03/23 12:21:19;;;;;;;20.02;16.25;;;;;;;;;;10292570;28;20510;-60
2023/03/23 12:26:27;;;;;;;20.00;17.85;;;;;;;;;;10291062;28;20474;-60
2023/03/23 12:31:28;;;;;;;16.92;15.07;;;;;;;;;;10291926;28;20475;-62
2023/03/23 12:36:33;;;;;;;19.70;17.67;;;;;;;;;;10293241;28;20072;-60
2023/03/23 12:41:33;;;;;;;18.98;17.08;;;;;;;;;;10293587;28;20087;-60
2023/03/23 12:46:54;;;;;;;22.55;18.27;;;;;;;;;;10291466;28;20075;-61
2023/03/23 12:51:55;;;;;;;23.45;20.73;;;;;;;;;;10277735;28;20080;-60
2023/03/23 12:56:57;;;;;;;18.88;17.00;;;;;;;;;;10290702;28;20052;-61
2023/03/23 13:01:57;;;;;;;25.23;20.95;;;;;;;;;;10280780;28;20084;-60
2023/03/23 13:06:56;;;;;;;20.55;18.38;;;;;;;;;;10290997;28;20060;-61
2023/03/23 13:11:54;;;;;;;19.10;17.13;;;;;;;;;;10290155;28;20075;-60
2023/03/23 13:16:56;;;;;;;18.27;16.38;;;;;;;;;;10291545;28;20069;-61
2023/03/23 13:21:59;;;;;;;18.17;16.20;;;;;;;;;;10290963;28;20068;-60
2023/03/23 13:26:57;;;;;;;17.90;15.20;;;;;;;;;;10292655;28;20065;-60
2023/03/23 13:32:08;;;;;;;20.05;17.08;;;;;;;;;;10290895;28;20490;-60
2023/03/23 13:37:11;;;;;;;19.70;17.70;;;;;;;;;;10285787;28;20471;-61
2023/03/23 13:42:20;;;;;;;22.08;17.30;;;;;;;;;;10291397;28;20084;-61
2023/03/23 13:47:22;;;;;;;17.13;15.38;;;;;;;;;;10287039;28;20068;-61
2023/03/23 13:52:25;;;;;;;24.15;17.90;;;;;;;;;;10290688;28;20072;-61
2023/03/23 13:57:25;;;;;;;20.25;17.20;;;;;;;;;;10289542;28;20076;-60
2023/03/23 14:02:29;;;;;;;19.60;16.00;;;;;;;;;;10289381;28;20072;-61
2023/03/23 14:07:28;;;;;;;17.13;15.33;;;;;;;;;;10291473;28;20083;-60
2023/03/23 14:12:27;;;;;;;25.70;20.73;;;;;;;;;;10289760;28;20072;-60
2023/03/23 14:17:26;;;;;;;18.10;16.20;;;;;;;;;;10284188;28;20098;-60
2023/03/23 14:22:24;;;;;;;18.65;16.08;;;;;;;;;;10284817;28;20501;-59
2023/03/23 14:27:24;;;;;;;18.10;16.15;;;;;;;;;;10285466;28;20064;-59
2023/03/23 14:32:25;;;;;;;17.60;14.80;;;;;;;;;;10282262;28;20073;-60
2023/03/23 14:37:23;;;;;;;16.77;15.07;;;;;;;;;;10286984;28;20084;-61
2023/03/23 14:42:22;;;;;;;20.08;16.48;;;;;;;;;;10289089;28;20951;-60
2023/03/23 14:47:23;;;;;;;24.70;19.55;;;;;;;;;;10289157;28;20075;-61
2023/03/23 14:52:22;;;;;;;19.92;17.83;;;;;;;;;;10289078;28;20073;-60
2023/03/23 14:57:20;;;;;;;18.55;16.60;;;;;;;;;;10289252;28;20075;-60
2023/03/23 15:02:18;;;;;;;20.48;18.38;;;;;;;;;;10296717;28;20079;-61
2023/03/23 15:07:17;;;;;;;110.63;79.93;;;;;;;;;;10298828;28;20072;-61
2023/03/23 15:12:20;;;;;;;50.30;43.40;;;;;;;;;;10296125;28;20077;-61
2023/03/23 15:17:21;;;;;;;24.55;22.08;;;;;;;;;;10296412;28;20057;-61
2023/03/23 15:22:22;;;;;;;41.83;31.42;;;;;;;;;;10295474;28;20072;-61
2023/03/23 15:27:25;;;;;;;32.70;26.35;;;;;;;;;;10294768;28;20074;-61
2023/03/23 15:32:23;;;;;;;33.88;30.27;;;;;;;;;;10295275;28;20140;-60
2023/03/23 15:37:24;;;;;;;28.85;24.10;;;;;;;;;;10296264;28;20083;-60
2023/03/23 15:42:26;;;;;;;34.30;31.02;;;;;;;;;;10291563;28;20064;-60
2023/03/23 15:47:23;;;;;;;49.35;40.45;;;;;;;;;;10295420;28;20044;-61
2023/03/23 15:52:22;;;;;;;34.58;26.50;;;;;;;;;;10295511;28;20072;-60
2023/03/23 15:57:19;;;;;;;31.45;27.23;;;;;;;;;;10294525;28;20087;-60
2023/03/23 16:02:19;;;;;;;29.38;26.15;;;;;;;;;;10295814;28;20103;-60
2023/03/23 16:07:18;;;;;;;36.35;30.23;;;;;;;;;;10293552;28;20071;-60
2023/03/23 16:12:17;;;;;;;50.25;37.00;;;;;;;;;;10293606;28;20077;-60
2023/03/23 16:17:20;;;;;;;44.45;38.10;;;;;;;;;;10288519;28;20068;-61
2023/03/23 16:22:18;;;;;;;41.60;36.55;;;;;;;;;;10290037;28;20527;-60
2023/03/23 16:27:20;;;;;;;59.30;48.65;;;;;;;;;;10293737;28;20502;-61
2023/03/23 16:32:18;;;;;;;51.88;44.53;;;;;;;;;;10292225;28;20076;-61
2023/03/23 16:37:17;;;;;;;40.70;35.55;;;;;;;;;;10292746;28;20079;-60
2023/03/23 16:42:18;;;;;;;100.03;86.28;;;;;;;;;;10293975;28;20076;-60
2023/03/23 16:47:22;;;;;;;166.07;134.23;;;;;;;;;;10289258;28;20044;-60
2023/03/23 16:52:20;;;;;;;77.60;63.65;;;;;;;;;;10292536;28;20076;-60
2023/03/23 16:57:19;;;;;;;45.10;36.22;;;;;;;;;;10293862;28;20076;-61
2023/03/23 17:02:18;;;;;;;26.30;22.75;;;;;;;;;;10290158;28;20263;-61
2023/03/23 17:07:17;;;;;;;35.00;28.73;;;;;;;;;;10292410;28;20071;-61
2023/03/23 17:12:15;;;;;;;60.63;48.63;;;;;;;;;;10291341;28;20075;-61
2023/03/23 17:17:13;;;;;;;23.80;21.30;;;;;;;;;;10291374;28;20069;-61
2023/03/23 17:22:13;;;;;;;21.10;18.92;;;;;;;;;;10286832;28;20080;-61
2023/03/23 17:27:11;;;;;;;33.97;29.10;;;;;;;;;;10288082;28;20442;-61
2023/03/23 17:32:09;;;;;;;30.83;27.63;;;;;;;;;;10289924;28;20045;-61
2023/03/23 17:37:08;;;;;;;91.50;68.50;;;;;;;;;;10289983;28;20073;-61
2023/03/23 17:42:07;;;;;;;88.03;65.93;;;;;;;;;;10290241;28;20084;-61
2023/03/23 17:47:06;;;;;;;40.95;35.00;;;;;;;;;;10286520;28;20076;-61
2023/03/23 17:52:04;;;;;;;26.70;23.80;;;;;;;;;;10289723;28;20063;-61
2023/03/23 17:57:03;;;;;;;25.98;23.25;;;;;;;;;;10295054;28;20080;-60
2023/03/23 18:02:02;;;;;;;28.48;21.45;;;;;;;;;;10292170;28;20087;-60
2023/03/23 18:07:01;;;;;;;27.67;23.15;;;;;;;;;;10284764;28;20081;-60
2023/03/23 18:11:59;;;;;;;30.40;25.63;;;;;;;;;;10284688;28;20474;-60
2023/03/23 18:16:58;;;;;;;30.33;26.63;;;;;;;;;;10288364;28;20075;-60
2023/03/23 18:21:57;;;;;;;62.60;46.28;;;;;;;;;;10289142;28;20072;-60
2023/03/23 18:26:55;;;;;;;30.50;25.75;;;;;;;;;;10286004;28;20521;-59
2023/03/23 18:31:54;;;;;;;26.67;23.88;;;;;;;;;;10278195;28;20064;-61
2023/03/23 18:36:52;;;;;;;26.92;23.88;;;;;;;;;;10296215;28;20056;-59
2023/03/23 18:41:52;;;;;;;25.65;22.98;;;;;;;;;;10297278;28;20087;-59
2023/03/23 18:46:50;;;;;;;24.33;21.80;;;;;;;;;;10297276;28;20060;-59
2023/03/23 18:51:48;;;;;;;26.52;22.77;;;;;;;;;;10282337;28;20060;-58
2023/03/23 18:56:46;;;;;;;21.85;19.58;;;;;;;;;;10295091;28;20069;-62
2023/03/23 19:01:48;;;;;;;25.23;20.45;;;;;;;;;;10298306;28;20087;-60
2023/03/23 19:06:46;;;;;;;27.10;22.60;;;;;;;;;;10291769;28;20075;-60
2023/03/23 19:11:45;;;;;;;24.88;22.13;;;;;;;;;;10297892;28;20065;-60
2023/03/23 19:16:43;;;;;;;21.63;19.35;;;;;;;;;;10292129;28;20462;-60
2023/03/23 19:21:43;;;;;;;21.88;17.80;;;;;;;;;;10295408;28;20084;-60
2023/03/23 19:26:44;;;;;;;19.90;17.92;;;;;;;;;;10298394;28;20532;-60
2023/03/23 19:31:43;;;;;;;20.77;18.52;;;;;;;;;;10294282;28;20086;-61
2023/03/23 19:36:45;;;;;;;19.77;16.73;;;;;;;;;;10292961;28;20065;-61
2023/03/23 19:41:56;;;;;;;17.98;15.55;;;;;;;;;;10295538;28;20347;-59
2023/03/23 19:46:54;;;;;;;18.23;16.00;;;;;;;;;;10294992;28;20079;-59
2023/03/23 19:51:54;;;;;;;20.80;18.60;;;;;;;;;;10293726;28;20064;-60
2023/03/23 19:57:08;;;;;;;22.08;18.23;;;;;;;;;;10294648;28;20069;-59
2023/03/23 20:02:07;;;;;;;18.90;16.95;;;;;;;;;;10293515;28;20080;-60
2023/03/23 20:07:07;;;;;;;19.15;17.05;;;;;;;;;;10292589;28;20072;-60
2023/03/23 20:12:05;;;;;;;16.98;15.27;;;;;;;;;;10290940;28;20068;-60
2023/03/23 20:17:04;;;;;;;19.08;17.10;;;;;;;;;;10295803;28;20079;-61
2023/03/23 20:22:03;;;;;;;20.80;18.50;;;;;;;;;;10288105;28;20072;-62
2023/03/23 20:27:03;;;;;;;23.50;19.17;;;;;;;;;;10280516;28;20092;-60
2023/03/23 20:32:02;;;;;;;21.50;18.75;;;;;;;;;;10294062;28;20069;-61
2023/03/23 20:37:01;;;;;;;20.58;17.45;;;;;;;;;;10292447;28;20467;-59
2023/03/23 20:42:05;;;;;;;18.83;16.85;;;;;;;;;;10283271;28;20087;-60
2023/03/23 20:47:06;;;;;;;22.33;15.93;;;;;;;;;;10291692;28;20095;-61
2023/03/23 20:52:05;;;;;;;20.20;18.02;;;;;;;;;;10286957;28;20075;-60
2023/03/23 20:57:04;;;;;;;17.13;15.43;;;;;;;;;;10289449;28;20048;-61
2023/03/23 21:02:03;;;;;;;18.35;16.38;;;;;;;;;;10286205;28;20457;-61
2023/03/23 21:07:03;;;;;;;18.65;16.70;;;;;;;;;;10286797;28;20072;-60
2023/03/23 21:12:03;;;;;;;19.10;16.50;;;;;;;;;;10287683;28;20075;-60
2023/03/23 21:17:01;;;;;;;19.77;17.75;;;;;;;;;;10291360;28;20071;-60
2023/03/23 21:22:00;;;;;;;21.92;16.95;;;;;;;;;;10289113;28;20080;-60
2023/03/23 21:27:00;;;;;;;19.17;17.30;;;;;;;;;;10290592;28;20076;-60
2023/03/23 21:31:59;;;;;;;19.85;16.17;;;;;;;;;;10286073;28;20097;-60
2023/03/23 21:37:06;;;;;;;16.02;14.40;;;;;;;;;;10298566;28;20087;-61
2023/03/23 21:42:05;;;;;;;18.25;14.20;;;;;;;;;;10285402;28;20080;-61
2023/03/23 21:47:04;;;;;;;17.05;14.50;;;;;;;;;;10288605;28;20075;-62
2023/03/23 21:52:02;;;;;;;14.77;13.27;;;;;;;;;;10290903;28;20060;-62
2023/03/23 21:57:00;;;;;;;14.27;12.88;;;;;;;;;;10277486;28;20076;-60
2023/03/23 22:02:02;;;;;;;18.38;15.05;;;;;;;;;;10289394;28;20532;-60
2023/03/23 22:07:01;;;;;;;15.32;13.52;;;;;;;;;;10287027;28;20525;-61
2023/03/23 22:11:59;;;;;;;15.73;14.02;;;;;;;;;;10287092;28;20072;-59
2023/03/23 22:16:59;;;;;;;14.93;13.15;;;;;;;;;;10287906;28;20107;-59
2023/03/23 22:21:58;;;;;;;17.92;14.88;;;;;;;;;;10284313;28;20482;-59
2023/03/23 22:26:57;;;;;;;17.98;13.00;;;;;;;;;;10286328;28;20060;-59
2023/03/23 22:31:55;;;;;;;14.00;12.50;;;;;;;;;;10290696;28;20048;-59
2023/03/23 22:36:54;;;;;;;18.83;13.18;;;;;;;;;;10288898;28;20550;-59
2023/03/23 22:41:54;;;;;;;14.32;12.93;;;;;;;;;;10289133;28;20545;-59
2023/03/23 22:46:52;;;;;;;13.75;12.35;;;;;;;;;;10288306;28;20516;-60
2023/03/23 22:51:51;;;;;;;16.20;12.40;;;;;;;;;;10289151;28;20071;-60
2023/03/23 22:56:49;;;;;;;14.55;12.98;;;;;;;;;;10286751;28;20091;-59
2023/03/23 23:01:49;;;;;;;14.57;12.95;;;;;;;;;;10288157;28;20079;-60
2023/03/23 23:06:47;;;;;;;16.35;12.55;;;;;;;;;;10287818;28;20505;-60
2023/03/23 23:11:45;;;;;;;17.42;13.05;;;;;;;;;;10289307;28;20083;-60
2023/03/23 23:16:43;;;;;;;13.38;12.07;;;;;;;;;;10288460;28;20072;-60
2023/03/23 23:21:43;;;;;;;14.80;12.60;;;;;;;;;;10291737;28;20084;-59
2023/03/23 23:26:43;;;;;;;14.35;12.88;;;;;;;;;;10292892;28;20065;-60
2023/03/23 23:31:42;;;;;;;13.50;12.10;;;;;;;;;;10292184;28;20072;-60
2023/03/23 23:36:41;;;;;;;15.05;13.45;;;;;;;;;;10302497;28;20040;-60
2023/03/23 23:41:42;;;;;;;14.15;12.80;;;;;;;;;;10286826;28;20095;-60
2023/03/23 23:46:40;;;;;;;15.57;13.43;;;;;;;;;;10290750;28;20076;-60
2023/03/23 23:51:40;;;;;;;13.32;11.93;;;;;;;;;;10289784;28;20068;-59
2023/03/23 23:56:38;;;;;;;18.17;14.18;;;;;;;;;;10293773;28;20083;-60
